createdAt,value
2018-10-01T00:03:58.181Z,3.94
2018-10-01T00:09:53.163Z,4.46
2018-10-01T00:15:48.171Z,4.01
2018-10-01T00:21:43.167Z,3.84
2018-10-01T00:27:38.150Z,4.17
2018-10-01T00:33:33.169Z,4.05
2018-10-01T00:39:28.187Z,4.49
2018-10-01T00:45:23.180Z,4.17
2018-10-01T00:51:18.182Z,4.09
2018-10-01T00:57:13.210Z,4.4
2018-10-01T01:03:08.224Z,4.67
2018-10-01T01:09:03.207Z,5.33
2018-10-01T01:14:58.203Z,7.21
2018-10-01T01:20:53.202Z,6.89
2018-10-01T01:26:48.201Z,6.7
2018-10-01T01:32:43.261Z,7.23
2018-10-01T01:38:38.240Z,7.21
2018-10-01T01:44:33.310Z,7.22
2018-10-01T01:50:28.216Z,7.65
2018-10-01T01:56:23.263Z,7.13
2018-10-01T02:02:18.264Z,7.89
2018-10-01T02:08:13.245Z,7.87
2018-10-01T02:14:08.260Z,8.4
2018-10-01T02:20:03.258Z,8.82
2018-10-01T02:25:58.306Z,8.86
2018-10-01T02:31:53.265Z,9.1
2018-10-01T02:37:48.270Z,7.96
2018-10-01T02:43:43.276Z,10.25
2018-10-01T02:49:38.261Z,11.05
2018-10-01T02:55:33.288Z,12.1
2018-10-01T03:01:28.274Z,10.73
2018-10-01T03:07:23.304Z,10.8
2018-10-01T03:13:18.261Z,11.55
2018-10-01T03:19:13.261Z,10.36
2018-10-01T03:25:08.306Z,11.51
2018-10-01T03:31:03.286Z,11.39
2018-10-01T03:36:58.280Z,9.93
2018-10-01T03:42:53.293Z,11.61
2018-10-01T03:48:48.282Z,11.67
2018-10-01T03:54:43.309Z,11.28
2018-10-01T04:00:38.289Z,12.15
2018-10-01T04:06:33.336Z,13.23
2018-10-01T04:12:28.335Z,13.75
2018-10-01T04:18:23.309Z,13.52
2018-10-01T04:24:18.323Z,14.21
2018-10-01T04:30:13.345Z,14.47
2018-10-01T04:36:08.328Z,15.64
2018-10-01T04:42:03.368Z,15.58
2018-10-01T04:47:58.346Z,16.53
2018-10-01T04:53:53.322Z,17.44
2018-10-01T04:59:48.353Z,16.97
2018-10-01T05:05:43.369Z,16.65
2018-10-01T05:11:38.345Z,16.47
2018-10-01T05:17:33.371Z,15.82
2018-10-01T05:23:28.369Z,13.42
2018-10-01T05:29:23.404Z,12.61
2018-10-01T05:35:18.395Z,13.84
2018-10-01T05:41:13.379Z,15.4
2018-10-01T05:47:08.362Z,15.86
2018-10-01T05:53:03.389Z,16.32
2018-10-01T05:58:58.381Z,14.48
2018-10-01T06:04:53.466Z,14.33
2018-10-01T06:10:48.409Z,15.37
2018-10-01T06:16:43.394Z,15.09
2018-10-01T06:22:38.431Z,14.93
2018-10-01T06:28:33.388Z,14.76
2018-10-01T06:34:28.434Z,20.66
2018-10-01T06:40:23.418Z,20.38
2018-10-01T06:46:18.412Z,24.45
2018-10-01T06:52:13.533Z,17.02
2018-10-01T06:58:08.447Z,13.15
2018-10-01T07:04:03.432Z,13.12
2018-10-01T07:09:58.432Z,15.97
2018-10-01T08:03:14.644Z,23.17
2018-10-01T08:09:09.709Z,17.77
2018-10-01T08:15:04.809Z,17.29
2018-10-01T08:20:59.670Z,20.16
2018-10-01T08:26:54.678Z,19.83
2018-10-01T08:32:49.686Z,17.86
2018-10-01T08:38:44.811Z,16.72
2018-10-01T08:44:39.744Z,17.25
2018-10-01T08:50:34.774Z,16.58
2018-10-01T08:56:29.757Z,15.6
2018-10-01T09:02:24.697Z,14.64
2018-10-01T09:08:19.723Z,13.52
2018-10-01T09:14:14.820Z,13.8
2018-10-01T09:20:09.767Z,11.54
2018-10-01T09:26:04.793Z,13.96
2018-10-01T09:31:59.756Z,13.87
2018-10-01T09:37:54.729Z,14.67
2018-10-01T09:43:49.737Z,13.27
2018-10-01T09:49:44.770Z,14.37
2018-10-01T09:55:39.761Z,12.43
2018-10-01T10:01:34.760Z,16.07
2018-10-01T10:07:29.746Z,14.53
2018-10-01T10:13:24.739Z,14.71
2018-10-01T10:19:19.764Z,12.72
2018-10-01T10:25:14.763Z,12.48
2018-10-01T10:31:09.821Z,12.96
2018-10-01T10:37:04.796Z,12.9
2018-10-01T10:42:59.773Z,13.96
2018-10-01T10:48:54.777Z,13.84
2018-10-01T10:54:49.839Z,14.04
2018-10-01T11:00:44.755Z,17.03
2018-10-01T11:06:39.782Z,14.94
2018-10-01T11:12:34.783Z,15.5
2018-10-01T11:18:29.813Z,13.75
2018-10-01T11:24:24.836Z,15.17
2018-10-01T11:30:19.789Z,15.14
2018-10-01T11:36:14.823Z,16.51
2018-10-01T11:42:09.794Z,14.83
2018-10-01T11:48:04.806Z,14.45
2018-10-01T11:53:59.846Z,14.03
2018-10-01T11:59:54.847Z,15.94
2018-10-01T12:05:49.835Z,17.85
2018-10-01T12:11:44.831Z,16.29
2018-10-01T12:17:39.855Z,16.52
2018-10-01T12:23:34.868Z,12.06
2018-10-01T12:29:29.828Z,8.45
2018-10-01T12:35:24.852Z,8.03
2018-10-01T12:41:19.838Z,6.24
2018-10-01T12:47:14.861Z,5.73
2018-10-01T12:53:09.862Z,4.41
2018-10-01T12:59:04.841Z,3.9
2018-10-01T13:04:59.924Z,3.14
2018-10-01T13:10:54.860Z,3.87
2018-10-01T13:16:49.866Z,4.35
2018-10-01T13:22:44.877Z,4
2018-10-01T13:28:39.907Z,3.67
2018-10-01T13:34:34.923Z,4.03
2018-10-01T13:40:29.883Z,4.03
2018-10-01T13:46:24.878Z,3.45
2018-10-01T13:52:20.031Z,2.67
2018-10-01T13:58:15.000Z,2.52
2018-10-01T14:04:09.910Z,2.84
2018-10-01T14:10:04.913Z,2.9
2018-10-01T14:15:59.938Z,3.1
2018-10-01T14:21:54.907Z,3.77
2018-10-01T14:27:49.945Z,3.22
2018-10-01T14:33:44.916Z,3.27
2018-10-01T14:39:39.928Z,3.02
2018-10-01T14:45:34.916Z,3.34
2018-10-01T14:51:29.982Z,3.37
2018-10-01T14:57:24.947Z,4.15
2018-10-01T15:03:19.939Z,3.82
2018-10-01T15:09:14.929Z,4.43
2018-10-01T15:15:09.969Z,5.24
2018-10-01T15:21:04.985Z,4.67
2018-10-01T15:26:59.975Z,4.64
2018-10-01T15:32:55.010Z,4.01
2018-10-01T15:38:49.956Z,4.83
2018-10-01T15:44:44.967Z,4.08
2018-10-01T15:50:39.965Z,4.6
2018-10-01T15:56:34.990Z,3.75
2018-10-01T16:02:29.997Z,3.32
2018-10-01T16:08:24.991Z,3.47
2018-10-01T16:14:20.006Z,3.2
2018-10-01T16:20:15.062Z,3.18
2018-10-01T16:26:10.022Z,3.9
2018-10-01T16:32:05.004Z,3.72
2018-10-01T16:38:00.037Z,4.24
2018-10-01T16:43:55.009Z,4.34
2018-10-01T16:49:50.055Z,4.5
2018-10-01T16:55:45.023Z,4.36
2018-10-01T17:01:40.021Z,4.45
2018-10-01T17:07:35.016Z,6.14
2018-10-01T17:13:30.038Z,5.59
2018-10-01T17:19:25.113Z,4.64
2018-10-01T17:25:20.099Z,3.33
2018-10-01T17:31:15.021Z,2.59
2018-10-01T17:37:10.053Z,2.8
2018-10-01T17:43:05.050Z,2.19
2018-10-01T17:49:00.046Z,1.9
2018-10-01T17:54:55.049Z,2.04
2018-10-01T18:00:50.047Z,2.32
2018-10-01T18:06:45.047Z,1.28
2018-10-01T18:12:40.071Z,1.56
2018-10-01T18:18:35.090Z,1.54
2018-10-01T18:24:30.082Z,1.46
2018-10-01T18:30:25.173Z,1.55
2018-10-01T18:36:20.218Z,1.65
2018-10-01T18:42:15.117Z,1.53
2018-10-01T18:48:10.116Z,1.49
2018-10-01T18:54:05.151Z,1.52
2018-10-01T19:00:00.187Z,1.66
2018-10-01T19:05:55.202Z,1.55
2018-10-01T19:11:50.128Z,1.53
2018-10-01T19:17:45.171Z,1.62
2018-10-01T19:23:40.136Z,1.42
2018-10-01T19:29:35.147Z,1.32
2018-10-01T19:35:30.128Z,1.25
2018-10-01T19:41:25.118Z,1.45
2018-10-01T19:47:20.190Z,2.17
2018-10-01T19:53:15.186Z,1.29
2018-10-01T19:59:10.127Z,1.37
2018-10-01T20:05:05.162Z,1.61
2018-10-01T20:11:00.252Z,1.68
2018-10-01T20:16:55.209Z,1.79
2018-10-01T20:22:50.152Z,1.64
2018-10-01T20:28:45.416Z,1.8
2018-10-01T20:34:40.255Z,2.13
2018-10-01T20:40:35.198Z,2.03
2018-10-01T20:46:30.216Z,1.57
2018-10-01T20:52:25.271Z,1.64
2018-10-01T20:58:20.150Z,2.56
2018-10-01T21:04:15.195Z,2.94
2018-10-01T21:10:10.177Z,3.4
2018-10-01T21:16:05.192Z,3.36
2018-10-01T21:22:00.184Z,2.9
2018-10-01T21:27:55.190Z,2.22
2018-10-01T21:33:50.188Z,2.17
2018-10-01T21:39:45.197Z,3.08
2018-10-01T21:45:40.206Z,3.05
2018-10-01T21:51:35.245Z,2.93
2018-10-01T21:57:30.246Z,2.74
2018-10-01T22:03:25.187Z,3.1
2018-10-01T22:09:20.203Z,2.86
2018-10-01T22:15:15.198Z,2.69
2018-10-01T22:21:10.221Z,1.88
2018-10-01T22:27:05.230Z,1.62
2018-10-01T22:33:00.240Z,1.66
2018-10-01T22:38:55.271Z,1.55
2018-10-01T22:44:50.217Z,1.6
2018-10-01T22:50:45.247Z,1.6
2018-10-01T22:56:40.232Z,1.46
2018-10-01T23:02:35.260Z,1.26
2018-10-01T23:08:30.246Z,1.16
2018-10-01T23:14:25.243Z,1.24
2018-10-01T23:20:20.249Z,1.15
2018-10-01T23:26:15.251Z,1.15
2018-10-01T23:32:10.286Z,0.91
2018-10-01T23:38:05.269Z,0.98
2018-10-01T23:44:00.257Z,1.17
2018-10-01T23:49:55.362Z,1
2018-10-01T23:55:50.281Z,1.23
